sensor_id;sensor_type;location;lat;lon;timestamp;P1;durP1;ratioP1;P2;durP2;ratioP2
24650;SDS011;12783;48.824;8.662;2023-03-01T00:02:11;25.33;;;12.63;;
24650;SDS011;12783;48.824;8.662;2023-03-01T00:04:38;22.45;;;11.65;;
24650;SDS011;12783;48.824;8.662;2023-03-01T00:07:05;33.85;;;12.52;;
24650;SDS011;12783;48.824;8.662;2023-03-01T00:09:31;28.08;;;12.45;;
24650;SDS011;12783;48.824;8.662;2023-03-01T00:11:58;22.88;;;11.98;;
24650;SDS011;12783;48.824;8.662;2023-03-01T00:14:25;21.60;;;11.45;;
24650;SDS011;12783;48.824;8.662;2023-03-01T00:16:51;22.35;;;11.90;;
24650;SDS011;12783;48.824;8.662;2023-03-01T00:19:19;24.50;;;11.77;;
24650;SDS011;12783;48.824;8.662;2023-03-01T00:21:46;25.55;;;12.88;;
24650;SDS011;12783;48.824;8.662;2023-03-01T00:24:12;24.23;;;12.40;;
24650;SDS011;12783;48.824;8.662;2023-03-01T00:26:39;24.30;;;11.82;;
24650;SDS011;12783;48.824;8.662;2023-03-01T00:29:06;24.90;;;12.60;;
24650;SDS011;12783;48.824;8.662;2023-03-01T00:31:33;27.10;;;12.20;;
24650;SDS011;12783;48.824;8.662;2023-03-01T00:34:02;25.60;;;12.75;;
24650;SDS011;12783;48.824;8.662;2023-03-01T00:36:31;27.00;;;12.23;;
24650;SDS011;12783;48.824;8.662;2023-03-01T00:39:00;26.63;;;12.23;;
24650;SDS011;12783;48.824;8.662;2023-03-01T00:41:27;25.45;;;12.45;;
24650;SDS011;12783;48.824;8.662;2023-03-01T00:43:54;21.98;;;12.32;;
24650;SDS011;12783;48.824;8.662;2023-03-01T00:46:23;28.63;;;12.80;;
24650;SDS011;12783;48.824;8.662;2023-03-01T00:48:51;32.22;;;12.82;;
24650;SDS011;12783;48.824;8.662;2023-03-01T00:51:20;40.83;;;14.55;;
24650;SDS011;12783;48.824;8.662;2023-03-01T00:53:52;25.40;;;12.55;;
24650;SDS011;12783;48.824;8.662;2023-03-01T00:56:20;26.88;;;12.30;;
24650;SDS011;12783;48.824;8.662;2023-03-01T00:58:47;25.98;;;12.50;;
24650;SDS011;12783;48.824;8.662;2023-03-01T01:01:18;32.03;;;14.15;;
24650;SDS011;12783;48.824;8.662;2023-03-01T01:03:47;24.52;;;12.13;;
24650;SDS011;12783;48.824;8.662;2023-03-01T01:06:19;24.63;;;12.43;;
24650;SDS011;12783;48.824;8.662;2023-03-01T01:08:48;24.67;;;12.57;;
24650;SDS011;12783;48.824;8.662;2023-03-01T01:11:15;25.98;;;11.93;;
24650;SDS011;12783;48.824;8.662;2023-03-01T01:13:43;21.42;;;12.27;;
24650;SDS011;12783;48.824;8.662;2023-03-01T01:16:11;23.13;;;12.80;;
24650;SDS011;12783;48.824;8.662;2023-03-01T01:18:39;25.70;;;12.90;;
24650;SDS011;12783;48.824;8.662;2023-03-01T01:21:08;26.63;;;12.43;;
24650;SDS011;12783;48.824;8.662;2023-03-01T01:23:37;27.85;;;13.38;;
24650;SDS011;12783;48.824;8.662;2023-03-01T01:26:09;27.65;;;13.73;;
24650;SDS011;12783;48.824;8.662;2023-03-01T01:28:37;29.08;;;13.73;;
24650;SDS011;12783;48.824;8.662;2023-03-01T01:31:04;31.08;;;13.43;;
24650;SDS011;12783;48.824;8.662;2023-03-01T01:33:32;32.70;;;13.30;;
24650;SDS011;12783;48.824;8.662;2023-03-01T01:35:59;27.88;;;13.98;;
24650;SDS011;12783;48.824;8.662;2023-03-01T01:38:26;27.73;;;13.27;;
24650;SDS011;12783;48.824;8.662;2023-03-01T01:40:53;27.58;;;12.60;;
24650;SDS011;12783;48.824;8.662;2023-03-01T01:43:27;32.38;;;14.20;;
24650;SDS011;12783;48.824;8.662;2023-03-01T01:45:59;31.00;;;13.93;;
24650;SDS011;12783;48.824;8.662;2023-03-01T01:48:39;29.38;;;14.50;;
24650;SDS011;12783;48.824;8.662;2023-03-01T01:51:13;25.95;;;13.05;;
24650;SDS011;12783;48.824;8.662;2023-03-01T01:53:41;25.00;;;13.07;;
24650;SDS011;12783;48.824;8.662;2023-03-01T01:56:09;29.40;;;13.98;;
24650;SDS011;12783;48.824;8.662;2023-03-01T01:58:38;25.33;;;13.35;;
24650;SDS011;12783;48.824;8.662;2023-03-01T02:01:05;30.33;;;14.38;;
24650;SDS011;12783;48.824;8.662;2023-03-01T02:03:32;31.40;;;13.98;;
24650;SDS011;12783;48.824;8.662;2023-03-01T02:06:04;27.00;;;13.38;;
24650;SDS011;12783;48.824;8.662;2023-03-01T02:08:35;29.83;;;14.38;;
24650;SDS011;12783;48.824;8.662;2023-03-01T02:11:04;31.85;;;13.43;;
24650;SDS011;12783;48.824;8.662;2023-03-01T02:13:32;29.35;;;13.95;;
24650;SDS011;12783;48.824;8.662;2023-03-01T02:16:02;36.22;;;14.30;;
24650;SDS011;12783;48.824;8.662;2023-03-01T02:18:38;35.90;;;14.30;;
24650;SDS011;12783;48.824;8.662;2023-03-01T02:23:44;31.25;;;14.27;;
24650;SDS011;12783;48.824;8.662;2023-03-01T02:26:16;30.98;;;13.48;;
24650;SDS011;12783;48.824;8.662;2023-03-01T02:28:59;25.60;;;13.63;;
24650;SDS011;12783;48.824;8.662;2023-03-01T02:31:26;27.10;;;13.15;;
24650;SDS011;12783;48.824;8.662;2023-03-01T02:34:09;28.33;;;13.38;;
24650;SDS011;12783;48.824;8.662;2023-03-01T02:36:45;32.88;;;13.98;;
24650;SDS011;12783;48.824;8.662;2023-03-01T02:39:14;34.72;;;14.52;;
24650;SDS011;12783;48.824;8.662;2023-03-01T02:41:49;34.28;;;14.35;;
24650;SDS011;12783;48.824;8.662;2023-03-01T02:44:17;31.77;;;14.65;;
24650;SDS011;12783;48.824;8.662;2023-03-01T02:46:45;33.17;;;14.52;;
24650;SDS011;12783;48.824;8.662;2023-03-01T02:49:21;42.20;;;17.67;;
24650;SDS011;12783;48.824;8.662;2023-03-01T02:52:01;36.30;;;15.60;;
24650;SDS011;12783;48.824;8.662;2023-03-01T02:54:43;33.65;;;14.57;;
24650;SDS011;12783;48.824;8.662;2023-03-01T02:57:14;30.98;;;14.70;;
24650;SDS011;12783;48.824;8.662;2023-03-01T02:59:42;31.85;;;15.07;;
24650;SDS011;12783;48.824;8.662;2023-03-01T03:02:22;28.65;;;13.70;;
24650;SDS011;12783;48.824;8.662;2023-03-01T03:05:06;33.80;;;14.90;;
24650;SDS011;12783;48.824;8.662;2023-03-01T03:07:35;27.42;;;13.45;;
24650;SDS011;12783;48.824;8.662;2023-03-01T03:10:04;29.95;;;13.93;;
24650;SDS011;12783;48.824;8.662;2023-03-01T03:12:32;31.17;;;14.43;;
24650;SDS011;12783;48.824;8.662;2023-03-01T03:14:58;32.78;;;14.98;;
24650;SDS011;12783;48.824;8.662;2023-03-01T03:17:25;31.17;;;14.55;;
24650;SDS011;12783;48.824;8.662;2023-03-01T03:19:52;33.10;;;15.75;;
24650;SDS011;12783;48.824;8.662;2023-03-01T03:22:19;29.85;;;14.65;;
24650;SDS011;12783;48.824;8.662;2023-03-01T03:24:45;33.20;;;15.23;;
24650;SDS011;12783;48.824;8.662;2023-03-01T03:27:12;32.90;;;15.35;;
24650;SDS011;12783;48.824;8.662;2023-03-01T03:29:39;28.27;;;14.55;;
24650;SDS011;12783;48.824;8.662;2023-03-01T03:32:05;31.23;;;15.15;;
24650;SDS011;12783;48.824;8.662;2023-03-01T03:34:33;29.63;;;14.93;;
24650;SDS011;12783;48.824;8.662;2023-03-01T03:36:59;37.92;;;16.38;;
24650;SDS011;12783;48.824;8.662;2023-03-01T03:39:26;30.30;;;15.27;;
24650;SDS011;12783;48.824;8.662;2023-03-01T03:41:53;31.80;;;15.48;;
24650;SDS011;12783;48.824;8.662;2023-03-01T03:44:20;30.88;;;15.55;;
24650;SDS011;12783;48.824;8.662;2023-03-01T03:46:47;31.30;;;15.40;;
24650;SDS011;12783;48.824;8.662;2023-03-01T03:49:14;30.63;;;15.27;;
24650;SDS011;12783;48.824;8.662;2023-03-01T03:51:40;34.30;;;16.33;;
24650;SDS011;12783;48.824;8.662;2023-03-01T03:54:07;32.38;;;16.45;;
24650;SDS011;12783;48.824;8.662;2023-03-01T03:56:34;33.53;;;15.48;;
24650;SDS011;12783;48.824;8.662;2023-03-01T03:59:01;33.72;;;15.60;;
24650;SDS011;12783;48.824;8.662;2023-03-01T04:01:27;29.52;;;15.30;;
24650;SDS011;12783;48.824;8.662;2023-03-01T04:03:54;33.08;;;15.70;;
24650;SDS011;12783;48.824;8.662;2023-03-01T04:06:21;31.67;;;15.13;;
24650;SDS011;12783;48.824;8.662;2023-03-01T04:08:48;29.52;;;15.02;;
24650;SDS011;12783;48.824;8.662;2023-03-01T04:11:17;31.65;;;15.52;;
24650;SDS011;12783;48.824;8.662;2023-03-01T04:13:53;31.67;;;15.65;;
24650;SDS011;12783;48.824;8.662;2023-03-01T04:16:21;30.48;;;15.82;;
24650;SDS011;12783;48.824;8.662;2023-03-01T04:18:49;30.92;;;15.38;;
24650;SDS011;12783;48.824;8.662;2023-03-01T04:21:16;32.65;;;15.50;;
24650;SDS011;12783;48.824;8.662;2023-03-01T04:23:43;30.50;;;15.15;;
24650;SDS011;12783;48.824;8.662;2023-03-01T04:26:10;31.33;;;15.35;;
24650;SDS011;12783;48.824;8.662;2023-03-01T04:28:37;29.30;;;14.82;;
24650;SDS011;12783;48.824;8.662;2023-03-01T04:31:13;30.58;;;14.65;;
24650;SDS011;12783;48.824;8.662;2023-03-01T04:33:45;30.80;;;15.50;;
24650;SDS011;12783;48.824;8.662;2023-03-01T04:36:13;30.52;;;14.90;;
24650;SDS011;12783;48.824;8.662;2023-03-01T04:38:41;35.40;;;16.02;;
24650;SDS011;12783;48.824;8.662;2023-03-01T04:41:09;34.20;;;16.05;;
24650;SDS011;12783;48.824;8.662;2023-03-01T04:43:36;33.90;;;15.75;;
24650;SDS011;12783;48.824;8.662;2023-03-01T04:46:04;31.10;;;15.50;;
24650;SDS011;12783;48.824;8.662;2023-03-01T04:48:35;34.78;;;14.93;;
24650;SDS011;12783;48.824;8.662;2023-03-01T04:51:03;29.58;;;15.20;;
24650;SDS011;12783;48.824;8.662;2023-03-01T04:53:30;34.95;;;15.82;;
24650;SDS011;12783;48.824;8.662;2023-03-01T04:55:58;32.17;;;16.17;;
24650;SDS011;12783;48.824;8.662;2023-03-01T04:58:26;33.20;;;16.23;;
24650;SDS011;12783;48.824;8.662;2023-03-01T05:00:53;34.03;;;15.38;;
24650;SDS011;12783;48.824;8.662;2023-03-01T05:03:20;32.47;;;16.63;;
24650;SDS011;12783;48.824;8.662;2023-03-01T05:05:49;33.10;;;16.20;;
24650;SDS011;12783;48.824;8.662;2023-03-01T05:08:17;33.55;;;16.10;;
24650;SDS011;12783;48.824;8.662;2023-03-01T05:10:45;33.05;;;15.85;;
24650;SDS011;12783;48.824;8.662;2023-03-01T05:13:14;29.42;;;15.38;;
24650;SDS011;12783;48.824;8.662;2023-03-01T05:15:57;32.33;;;16.20;;
24650;SDS011;12783;48.824;8.662;2023-03-01T05:18:25;36.35;;;16.48;;
24650;SDS011;12783;48.824;8.662;2023-03-01T05:20:53;34.17;;;15.38;;
24650;SDS011;12783;48.824;8.662;2023-03-01T05:23:22;34.45;;;16.50;;
24650;SDS011;12783;48.824;8.662;2023-03-01T05:25:49;31.05;;;15.73;;
24650;SDS011;12783;48.824;8.662;2023-03-01T05:28:18;32.42;;;16.58;;
24650;SDS011;12783;48.824;8.662;2023-03-01T05:30:46;30.85;;;16.52;;
24650;SDS011;12783;48.824;8.662;2023-03-01T05:33:13;31.33;;;15.90;;
24650;SDS011;12783;48.824;8.662;2023-03-01T05:35:43;32.05;;;16.70;;
24650;SDS011;12783;48.824;8.662;2023-03-01T05:38:11;33.80;;;16.38;;
24650;SDS011;12783;48.824;8.662;2023-03-01T05:40:42;34.63;;;16.35;;
24650;SDS011;12783;48.824;8.662;2023-03-01T05:43:10;33.85;;;16.65;;
24650;SDS011;12783;48.824;8.662;2023-03-01T05:45:37;34.45;;;16.60;;
24650;SDS011;12783;48.824;8.662;2023-03-01T05:48:05;32.63;;;15.77;;
24650;SDS011;12783;48.824;8.662;2023-03-01T05:50:33;33.22;;;16.00;;
24650;SDS011;12783;48.824;8.662;2023-03-01T05:53:06;36.20;;;16.52;;
24650;SDS011;12783;48.824;8.662;2023-03-01T05:55:35;32.75;;;16.33;;
24650;SDS011;12783;48.824;8.662;2023-03-01T05:58:03;33.42;;;16.83;;
24650;SDS011;12783;48.824;8.662;2023-03-01T06:00:31;37.60;;;17.23;;
24650;SDS011;12783;48.824;8.662;2023-03-01T06:02:58;35.42;;;16.77;;
24650;SDS011;12783;48.824;8.662;2023-03-01T06:05:25;34.88;;;16.05;;
24650;SDS011;12783;48.824;8.662;2023-03-01T06:07:53;34.72;;;17.80;;
24650;SDS011;12783;48.824;8.662;2023-03-01T06:10:20;32.88;;;16.73;;
24650;SDS011;12783;48.824;8.662;2023-03-01T06:12:48;35.72;;;17.02;;
24650;SDS011;12783;48.824;8.662;2023-03-01T06:15:15;43.63;;;21.48;;
24650;SDS011;12783;48.824;8.662;2023-03-01T06:17:43;31.58;;;15.95;;
24650;SDS011;12783;48.824;8.662;2023-03-01T06:20:13;32.90;;;16.27;;
24650;SDS011;12783;48.824;8.662;2023-03-01T06:22:42;30.77;;;15.55;;
24650;SDS011;12783;48.824;8.662;2023-03-01T06:25:10;29.98;;;16.10;;
24650;SDS011;12783;48.824;8.662;2023-03-01T06:27:38;34.38;;;16.98;;
24650;SDS011;12783;48.824;8.662;2023-03-01T06:30:06;34.13;;;16.48;;
24650;SDS011;12783;48.824;8.662;2023-03-01T06:32:36;35.65;;;16.60;;
24650;SDS011;12783;48.824;8.662;2023-03-01T06:35:03;28.83;;;14.82;;
24650;SDS011;12783;48.824;8.662;2023-03-01T06:37:31;30.88;;;17.02;;
24650;SDS011;12783;48.824;8.662;2023-03-01T06:39:57;34.10;;;16.20;;
24650;SDS011;12783;48.824;8.662;2023-03-01T06:42:24;29.88;;;14.63;;
24650;SDS011;12783;48.824;8.662;2023-03-01T06:44:51;35.50;;;16.98;;
24650;SDS011;12783;48.824;8.662;2023-03-01T06:47:17;36.83;;;16.50;;
24650;SDS011;12783;48.824;8.662;2023-03-01T06:49:44;33.53;;;16.83;;
24650;SDS011;12783;48.824;8.662;2023-03-01T06:52:11;31.42;;;15.95;;
24650;SDS011;12783;48.824;8.662;2023-03-01T06:54:37;38.40;;;15.85;;
24650;SDS011;12783;48.824;8.662;2023-03-01T06:57:04;32.75;;;16.33;;
24650;SDS011;12783;48.824;8.662;2023-03-01T06:59:31;34.28;;;15.50;;
24650;SDS011;12783;48.824;8.662;2023-03-01T07:01:57;33.35;;;16.27;;
24650;SDS011;12783;48.824;8.662;2023-03-01T07:04:24;31.80;;;16.45;;
24650;SDS011;12783;48.824;8.662;2023-03-01T07:06:51;31.83;;;15.55;;
24650;SDS011;12783;48.824;8.662;2023-03-01T07:09:24;31.08;;;14.85;;
24650;SDS011;12783;48.824;8.662;2023-03-01T07:11:51;28.35;;;14.80;;
24650;SDS011;12783;48.824;8.662;2023-03-01T07:14:17;33.92;;;17.00;;
24650;SDS011;12783;48.824;8.662;2023-03-01T07:16:46;30.73;;;15.43;;
24650;SDS011;12783;48.824;8.662;2023-03-01T07:19:12;27.23;;;15.10;;
24650;SDS011;12783;48.824;8.662;2023-03-01T07:21:39;30.48;;;15.55;;
24650;SDS011;12783;48.824;8.662;2023-03-01T07:24:06;30.90;;;14.65;;
24650;SDS011;12783;48.824;8.662;2023-03-01T07:26:33;26.88;;;13.90;;
24650;SDS011;12783;48.824;8.662;2023-03-01T07:29:00;28.95;;;15.52;;
24650;SDS011;12783;48.824;8.662;2023-03-01T07:31:28;30.40;;;15.10;;
24650;SDS011;12783;48.824;8.662;2023-03-01T07:33:54;31.17;;;15.40;;
24650;SDS011;12783;48.824;8.662;2023-03-01T07:36:22;28.50;;;14.63;;
24650;SDS011;12783;48.824;8.662;2023-03-01T07:38:48;30.10;;;14.68;;
24650;SDS011;12783;48.824;8.662;2023-03-01T07:41:15;33.40;;;15.15;;
24650;SDS011;12783;48.824;8.662;2023-03-01T07:43:42;36.10;;;16.67;;
24650;SDS011;12783;48.824;8.662;2023-03-01T07:46:09;34.72;;;16.98;;
24650;SDS011;12783;48.824;8.662;2023-03-01T07:48:36;42.97;;;17.30;;
24650;SDS011;12783;48.824;8.662;2023-03-01T07:51:04;37.00;;;16.80;;
24650;SDS011;12783;48.824;8.662;2023-03-01T07:53:32;33.63;;;16.40;;
24650;SDS011;12783;48.824;8.662;2023-03-01T07:56:00;35.88;;;16.65;;
24650;SDS011;12783;48.824;8.662;2023-03-01T07:58:31;29.25;;;15.73;;
24650;SDS011;12783;48.824;8.662;2023-03-01T08:01:03;31.73;;;16.08;;
24650;SDS011;12783;48.824;8.662;2023-03-01T08:03:31;29.23;;;15.35;;
24650;SDS011;12783;48.824;8.662;2023-03-01T08:06:02;31.27;;;15.90;;
24650;SDS011;12783;48.824;8.662;2023-03-01T08:08:30;34.63;;;15.95;;
24650;SDS011;12783;48.824;8.662;2023-03-01T08:10:57;32.28;;;16.27;;
24650;SDS011;12783;48.824;8.662;2023-03-01T08:13:25;30.92;;;15.82;;
24650;SDS011;12783;48.824;8.662;2023-03-01T08:15:52;30.08;;;15.38;;
24650;SDS011;12783;48.824;8.662;2023-03-01T08:18:19;33.80;;;16.33;;
24650;SDS011;12783;48.824;8.662;2023-03-01T08:20:47;34.20;;;16.08;;
24650;SDS011;12783;48.824;8.662;2023-03-01T08:23:14;34.45;;;16.58;;
24650;SDS011;12783;48.824;8.662;2023-03-01T08:25:40;32.28;;;16.05;;
24650;SDS011;12783;48.824;8.662;2023-03-01T08:28:07;36.33;;;16.45;;
24650;SDS011;12783;48.824;8.662;2023-03-01T08:30:34;31.23;;;16.33;;
24650;SDS011;12783;48.824;8.662;2023-03-01T08:33:01;31.83;;;16.13;;
24650;SDS011;12783;48.824;8.662;2023-03-01T08:35:28;31.90;;;16.75;;
24650;SDS011;12783;48.824;8.662;2023-03-01T08:37:54;29.92;;;16.65;;
24650;SDS011;12783;48.824;8.662;2023-03-01T08:40:21;33.47;;;17.23;;
24650;SDS011;12783;48.824;8.662;2023-03-01T08:42:48;40.13;;;18.05;;
24650;SDS011;12783;48.824;8.662;2023-03-01T08:45:14;37.10;;;17.42;;
24650;SDS011;12783;48.824;8.662;2023-03-01T08:47:44;30.85;;;17.42;;
24650;SDS011;12783;48.824;8.662;2023-03-01T08:50:11;33.20;;;17.25;;
24650;SDS011;12783;48.824;8.662;2023-03-01T08:52:38;33.45;;;17.45;;
24650;SDS011;12783;48.824;8.662;2023-03-01T08:55:05;34.45;;;17.27;;
24650;SDS011;12783;48.824;8.662;2023-03-01T08:57:32;33.38;;;16.63;;
24650;SDS011;12783;48.824;8.662;2023-03-01T08:59:58;32.83;;;16.85;;
24650;SDS011;12783;48.824;8.662;2023-03-01T09:02:25;32.65;;;16.40;;
24650;SDS011;12783;48.824;8.662;2023-03-01T09:04:52;34.70;;;17.15;;
24650;SDS011;12783;48.824;8.662;2023-03-01T09:07:19;33.40;;;15.90;;
24650;SDS011;12783;48.824;8.662;2023-03-01T09:09:45;33.60;;;16.77;;
24650;SDS011;12783;48.824;8.662;2023-03-01T09:12:12;31.00;;;15.55;;
24650;SDS011;12783;48.824;8.662;2023-03-01T09:14:39;33.67;;;17.10;;
24650;SDS011;12783;48.824;8.662;2023-03-01T09:17:07;32.25;;;16.55;;
24650;SDS011;12783;48.824;8.662;2023-03-01T09:19:34;28.00;;;15.43;;
24650;SDS011;12783;48.824;8.662;2023-03-01T09:22:00;34.40;;;16.63;;
24650;SDS011;12783;48.824;8.662;2023-03-01T09:24:29;33.30;;;17.23;;
24650;SDS011;12783;48.824;8.662;2023-03-01T09:26:56;33.53;;;16.63;;
24650;SDS011;12783;48.824;8.662;2023-03-01T09:29:23;31.42;;;16.17;;
24650;SDS011;12783;48.824;8.662;2023-03-01T09:31:50;32.25;;;17.17;;
24650;SDS011;12783;48.824;8.662;2023-03-01T09:34:21;28.15;;;16.42;;
24650;SDS011;12783;48.824;8.662;2023-03-01T09:36:49;30.52;;;16.60;;
24650;SDS011;12783;48.824;8.662;2023-03-01T09:39:17;30.70;;;16.48;;
24650;SDS011;12783;48.824;8.662;2023-03-01T09:41:49;29.30;;;17.20;;
24650;SDS011;12783;48.824;8.662;2023-03-01T09:47:01;30.25;;;16.27;;
24650;SDS011;12783;48.824;8.662;2023-03-01T09:49:29;34.78;;;17.42;;
24650;SDS011;12783;48.824;8.662;2023-03-01T09:54:27;31.52;;;16.15;;
24650;SDS011;12783;48.824;8.662;2023-03-01T09:57:05;30.38;;;16.90;;
24650;SDS011;12783;48.824;8.662;2023-03-01T09:59:38;31.20;;;16.60;;
24650;SDS011;12783;48.824;8.662;2023-03-01T10:04:58;32.22;;;16.30;;
24650;SDS011;12783;48.824;8.662;2023-03-01T10:10:35;33.10;;;16.73;;
24650;SDS011;12783;48.824;8.662;2023-03-01T10:13:10;35.58;;;17.08;;
24650;SDS011;12783;48.824;8.662;2023-03-01T10:15:53;33.70;;;17.83;;
24650;SDS011;12783;48.824;8.662;2023-03-01T10:18:23;30.90;;;16.70;;
24650;SDS011;12783;48.824;8.662;2023-03-01T10:20:59;33.83;;;17.40;;
24650;SDS011;12783;48.824;8.662;2023-03-01T10:23:30;36.97;;;17.38;;
24650;SDS011;12783;48.824;8.662;2023-03-01T10:26:14;32.65;;;16.73;;
24650;SDS011;12783;48.824;8.662;2023-03-01T10:34:11;32.75;;;16.65;;
24650;SDS011;12783;48.824;8.662;2023-03-01T10:36:43;30.85;;;17.48;;
24650;SDS011;12783;48.824;8.662;2023-03-01T10:39:15;35.03;;;17.98;;
24650;SDS011;12783;48.824;8.662;2023-03-01T10:41:54;32.92;;;16.90;;
24650;SDS011;12783;48.824;8.662;2023-03-01T10:44:34;34.67;;;17.30;;
24650;SDS011;12783;48.824;8.662;2023-03-01T10:47:02;30.98;;;15.95;;
24650;SDS011;12783;48.824;8.662;2023-03-01T10:49:29;34.10;;;17.63;;
24650;SDS011;12783;48.824;8.662;2023-03-01T10:51:55;31.67;;;17.02;;
24650;SDS011;12783;48.824;8.662;2023-03-01T10:54:25;35.53;;;17.05;;
24650;SDS011;12783;48.824;8.662;2023-03-01T10:56:58;30.50;;;16.85;;
24650;SDS011;12783;48.824;8.662;2023-03-01T11:05:01;31.63;;;16.80;;
24650;SDS011;12783;48.824;8.662;2023-03-01T11:07:32;28.60;;;16.30;;
24650;SDS011;12783;48.824;8.662;2023-03-01T11:10:24;32.65;;;16.83;;
24650;SDS011;12783;48.824;8.662;2023-03-01T11:13:08;35.35;;;17.60;;
24650;SDS011;12783;48.824;8.662;2023-03-01T11:15:42;32.47;;;16.85;;
24650;SDS011;12783;48.824;8.662;2023-03-01T11:18:19;29.35;;;15.68;;
24650;SDS011;12783;48.824;8.662;2023-03-01T11:20:52;34.17;;;16.40;;
24650;SDS011;12783;48.824;8.662;2023-03-01T11:23:19;33.05;;;16.65;;
24650;SDS011;12783;48.824;8.662;2023-03-01T11:25:53;33.42;;;17.55;;
24650;SDS011;12783;48.824;8.662;2023-03-01T11:28:22;35.05;;;17.33;;
24650;SDS011;12783;48.824;8.662;2023-03-01T11:31:05;29.70;;;15.85;;
24650;SDS011;12783;48.824;8.662;2023-03-01T11:38:48;30.35;;;15.77;;
24650;SDS011;12783;48.824;8.662;2023-03-01T11:41:16;29.02;;;16.38;;
24650;SDS011;12783;48.824;8.662;2023-03-01T11:43:47;32.67;;;16.52;;
24650;SDS011;12783;48.824;8.662;2023-03-01T11:49:24;32.08;;;16.20;;
24650;SDS011;12783;48.824;8.662;2023-03-01T11:57:37;31.88;;;17.13;;
24650;SDS011;12783;48.824;8.662;2023-03-01T12:00:37;31.33;;;16.52;;
24650;SDS011;12783;48.824;8.662;2023-03-01T12:06:19;33.00;;;16.40;;
24650;SDS011;12783;48.824;8.662;2023-03-01T12:14:40;31.60;;;16.65;;
24650;SDS011;12783;48.824;8.662;2023-03-01T12:17:22;36.03;;;17.42;;
24650;SDS011;12783;48.824;8.662;2023-03-01T12:28:31;30.10;;;16.67;;
24650;SDS011;12783;48.824;8.662;2023-03-01T12:31:27;30.45;;;16.17;;
24650;SDS011;12783;48.824;8.662;2023-03-01T12:34:12;32.17;;;16.10;;
24650;SDS011;12783;48.824;8.662;2023-03-01T12:45:26;33.22;;;16.70;;
24650;SDS011;12783;48.824;8.662;2023-03-01T12:48:09;36.22;;;16.42;;
24650;SDS011;12783;48.824;8.662;2023-03-01T12:50:54;32.22;;;16.48;;
24650;SDS011;12783;48.824;8.662;2023-03-01T12:53:25;33.78;;;16.73;;
24650;SDS011;12783;48.824;8.662;2023-03-01T12:55:54;29.08;;;15.30;;
24650;SDS011;12783;48.824;8.662;2023-03-01T12:58:36;32.22;;;17.23;;
24650;SDS011;12783;48.824;8.662;2023-03-01T13:04:18;30.58;;;16.58;;
24650;SDS011;12783;48.824;8.662;2023-03-01T13:09:55;31.42;;;17.48;;
24650;SDS011;12783;48.824;8.662;2023-03-01T13:17:54;29.77;;;16.90;;
24650;SDS011;12783;48.824;8.662;2023-03-01T13:20:33;33.63;;;16.60;;
24650;SDS011;12783;48.824;8.662;2023-03-01T13:28:53;31.48;;;16.50;;
24650;SDS011;12783;48.824;8.662;2023-03-01T13:33:53;33.25;;;17.35;;
24650;SDS011;12783;48.824;8.662;2023-03-01T13:46:51;30.98;;;16.02;;
24650;SDS011;12783;48.824;8.662;2023-03-01T13:49:21;30.88;;;16.17;;
24650;SDS011;12783;48.824;8.662;2023-03-01T13:51:52;30.80;;;16.30;;
24650;SDS011;12783;48.824;8.662;2023-03-01T13:54:29;31.95;;;16.42;;
24650;SDS011;12783;48.824;8.662;2023-03-01T13:56:58;33.88;;;17.83;;
24650;SDS011;12783;48.824;8.662;2023-03-01T13:59:26;31.90;;;16.35;;
24650;SDS011;12783;48.824;8.662;2023-03-01T14:01:53;36.70;;;18.10;;
24650;SDS011;12783;48.824;8.662;2023-03-01T14:04:26;31.83;;;17.15;;
24650;SDS011;12783;48.824;8.662;2023-03-01T14:09:39;32.20;;;17.33;;
24650;SDS011;12783;48.824;8.662;2023-03-01T14:15:14;32.13;;;17.83;;
24650;SDS011;12783;48.824;8.662;2023-03-01T14:17:49;30.60;;;16.75;;
24650;SDS011;12783;48.824;8.662;2023-03-01T14:20:27;32.00;;;18.02;;
24650;SDS011;12783;48.824;8.662;2023-03-01T14:22:55;33.92;;;18.25;;
24650;SDS011;12783;48.824;8.662;2023-03-01T14:25:27;31.38;;;17.25;;
24650;SDS011;12783;48.824;8.662;2023-03-01T14:30:58;32.33;;;17.33;;
24650;SDS011;12783;48.824;8.662;2023-03-01T14:35:57;33.30;;;17.75;;
24650;SDS011;12783;48.824;8.662;2023-03-01T14:38:30;34.13;;;16.75;;
24650;SDS011;12783;48.824;8.662;2023-03-01T14:41:02;34.95;;;17.05;;
24650;SDS011;12783;48.824;8.662;2023-03-01T14:43:44;33.63;;;17.00;;
24650;SDS011;12783;48.824;8.662;2023-03-01T14:46:18;33.50;;;16.70;;
24650;SDS011;12783;48.824;8.662;2023-03-01T14:48:54;36.80;;;17.83;;
24650;SDS011;12783;48.824;8.662;2023-03-01T14:51:24;35.42;;;17.95;;
24650;SDS011;12783;48.824;8.662;2023-03-01T14:53:50;34.35;;;17.50;;
24650;SDS011;12783;48.824;8.662;2023-03-01T14:56:18;30.92;;;17.15;;
24650;SDS011;12783;48.824;8.662;2023-03-01T14:58:46;41.70;;;16.52;;
24650;SDS011;12783;48.824;8.662;2023-03-01T15:01:16;29.20;;;16.17;;
24650;SDS011;12783;48.824;8.662;2023-03-01T15:03:44;35.08;;;17.05;;
24650;SDS011;12783;48.824;8.662;2023-03-01T15:06:14;35.45;;;18.05;;
24650;SDS011;12783;48.824;8.662;2023-03-01T15:08:45;34.30;;;17.45;;
24650;SDS011;12783;48.824;8.662;2023-03-01T15:11:28;38.25;;;15.57;;
24650;SDS011;12783;48.824;8.662;2023-03-01T15:13:57;30.35;;;16.75;;
24650;SDS011;12783;48.824;8.662;2023-03-01T15:16:31;32.53;;;16.88;;
24650;SDS011;12783;48.824;8.662;2023-03-01T15:19:03;32.92;;;17.30;;
24650;SDS011;12783;48.824;8.662;2023-03-01T15:21:32;32.45;;;15.98;;
24650;SDS011;12783;48.824;8.662;2023-03-01T15:26:31;29.95;;;16.50;;
24650;SDS011;12783;48.824;8.662;2023-03-01T15:29:03;30.52;;;16.40;;
24650;SDS011;12783;48.824;8.662;2023-03-01T15:31:31;27.98;;;16.25;;
24650;SDS011;12783;48.824;8.662;2023-03-01T15:34:19;33.53;;;16.40;;
24650;SDS011;12783;48.824;8.662;2023-03-01T15:36:48;28.65;;;15.75;;
24650;SDS011;12783;48.824;8.662;2023-03-01T15:39:27;32.47;;;17.48;;
24650;SDS011;12783;48.824;8.662;2023-03-01T15:53:11;32.70;;;16.08;;
24650;SDS011;12783;48.824;8.662;2023-03-01T15:55:40;31.80;;;15.88;;
24650;SDS011;12783;48.824;8.662;2023-03-01T15:58:14;31.35;;;16.17;;
24650;SDS011;12783;48.824;8.662;2023-03-01T16:00:47;31.15;;;16.90;;
24650;SDS011;12783;48.824;8.662;2023-03-01T16:03:26;32.17;;;16.40;;
24650;SDS011;12783;48.824;8.662;2023-03-01T16:05:54;35.88;;;16.85;;
24650;SDS011;12783;48.824;8.662;2023-03-01T16:08:20;30.42;;;16.23;;
24650;SDS011;12783;48.824;8.662;2023-03-01T16:10:48;31.00;;;15.98;;
24650;SDS011;12783;48.824;8.662;2023-03-01T16:13:17;33.63;;;16.98;;
24650;SDS011;12783;48.824;8.662;2023-03-01T16:15:44;30.90;;;16.08;;
24650;SDS011;12783;48.824;8.662;2023-03-01T16:18:11;30.65;;;15.98;;
24650;SDS011;12783;48.824;8.662;2023-03-01T16:20:38;31.23;;;16.20;;
24650;SDS011;12783;48.824;8.662;2023-03-01T16:23:06;35.97;;;16.30;;
24650;SDS011;12783;48.824;8.662;2023-03-01T16:25:34;29.15;;;16.15;;
24650;SDS011;12783;48.824;8.662;2023-03-01T16:28:02;34.58;;;16.33;;
24650;SDS011;12783;48.824;8.662;2023-03-01T16:30:34;30.10;;;15.93;;
24650;SDS011;12783;48.824;8.662;2023-03-01T16:33:02;30.75;;;16.10;;
24650;SDS011;12783;48.824;8.662;2023-03-01T16:35:49;30.75;;;15.65;;
24650;SDS011;12783;48.824;8.662;2023-03-01T16:38:16;31.48;;;16.67;;